Main page
METAR-TAF:

METAR-TAF

Airports :

Riyadh Air Base

Riyadh, Saudi Arabia

latitude: 24-43N, longitude: 046-44E, elevation: 635 m

METAR: missing

Time: 11:07 (08:07 UTC)

Forecast

The report was made 9 hours and 7 minutes ago, at 23:00 UTC
Forecast valid from 25 at 00 UTC to 26 at 06 UTC
Wind 3 kt from variable directions
Visibility: 8000 m
Clear sky
Temporary
from 25 at 00 UTC to 25 at 12 UTC
Visibility: 4000 m
widespread dust, Blowing dust
Becoming
from 25 at 06 UTC to 25 at 08 UTC
Wind 15 kt from the North/Northwest

TAF: OERY 242300Z 2500/2606 VRB03KT 8000 SKC TEMPO 2500/2512 4000 DU BLDU BECMG 2506/2508 33015KT

Weather observations and forecasts of more than 4000 airports (METAR and TAF reports).

The available stations are represented by yellow and red dots on the map.

Hover mouse over dot to see the name of the station.

Then click to see weather observations and forecasts.

To change the map : click on the green buttons with a black cross to zoom in, on the green button with a dash to zoom out, or on the green arrows for adjacent maps.


METAR-TAF: